Time;durP1;ratioP1;P1;durP2;ratioP2;P2;SDS_P1;SDS_P2;PMS_P1;PMS_P2;Temp;Humidity;BMP_temperature;BMP_pressure;BME280_temperature;BME280_humidity;BME280_pressure;Samples;Min_cycle;Max_cycle;Signal;HPM_P1;HPM_P2
2024/02/28 00:01:49;;;;;;;25.33;16.13;;;9.30;1.00;;;;;;4415927;28;656685;-73
2024/02/28 00:04:36;;;;;;;24.13;15.13;;;9.30;1.00;;;;;;4397043;28;656842;-73
2024/02/28 00:07:25;;;;;;;27.43;14.90;;;9.30;1.00;;;;;;4399439;28;656700;-73
2024/02/28 00:10:12;;;;;;;24.73;14.70;;;9.30;1.00;;;;;;4415758;28;656624;-73
2024/02/28 00:13:00;;;;;;;24.33;15.43;;;9.30;1.00;;;;;;4431817;28;657762;-73
2024/02/28 00:15:48;;;;;;;21.33;14.30;;;9.30;1.00;;;;;;4395918;28;656601;-73
2024/02/28 00:18:35;;;;;;;25.80;14.60;;;9.30;1.00;;;;;;4421553;28;657759;-72
2024/02/28 00:21:23;;;;;;;30.00;15.63;;;9.30;1.00;;;;;;4388296;28;656365;-73
2024/02/28 00:24:11;;;;;;;24.83;14.63;;;9.30;1.00;;;;;;4414932;28;657688;-73
2024/02/28 00:26:58;;;;;;;26.77;14.52;;;9.30;1.00;;;;;;4385479;28;656425;-73
2024/02/28 00:29:46;;;;;;;23.00;14.50;;;9.30;1.00;;;;;;4411403;28;658191;-73
2024/02/28 00:32:33;;;;;;;29.67;15.10;;;9.20;1.00;;;;;;4392833;28;657005;-73
2024/02/28 00:35:21;;;;;;;35.27;15.07;;;9.20;1.00;;;;;;4407724;28;657898;-73
2024/02/28 00:38:08;;;;;;;30.00;16.07;;;9.20;1.00;;;;;;4391165;28;657079;-73
2024/02/28 00:40:56;;;;;;;25.53;15.23;;;9.20;1.00;;;;;;4414473;28;656851;-73
2024/02/28 00:43:44;;;;;;;24.57;15.30;;;9.20;1.00;;;;;;4398874;28;657656;-75
2024/02/28 00:46:31;;;;;;;28.10;15.10;;;9.20;1.00;;;;;;4422284;28;656826;-73
2024/02/28 00:49:18;;;;;;;27.10;15.33;;;9.30;1.00;;;;;;4409143;28;657115;-73
2024/02/28 00:52:06;;;;;;;28.30;15.83;;;9.30;1.00;;;;;;4421725;28;657589;-73
2024/02/28 00:54:53;;;;;;;25.60;14.70;;;9.30;1.00;;;;;;4381727;28;657240;-73
2024/02/28 00:57:41;;;;;;;26.77;15.20;;;9.20;1.00;;;;;;4417390;28;657105;-73
2024/02/28 01:00:29;;;;;;;25.37;15.33;;;9.10;1.00;;;;;;4384692;28;656755;-73
2024/02/28 01:03:18;;;;;;;27.73;15.23;;;9.10;1.00;;;;;;4397073;28;656652;-73
2024/02/28 01:06:05;;;;;;;25.90;16.20;;;9.10;1.00;;;;;;4383913;28;656779;-73
2024/02/28 01:08:53;;;;;;;26.90;15.90;;;9.10;1.00;;;;;;4384349;28;656555;-73
2024/02/28 01:11:40;;;;;;;31.97;17.27;;;9.10;10.80;;;;;;4404013;28;657584;-73
2024/02/28 01:14:29;;;;;;;29.10;16.23;;;9.10;24.70;;;;;;4382598;28;658237;-73
2024/02/28 01:17:16;;;;;;;27.87;14.83;;;9.10;58.10;;;;;;4403836;28;658420;-73
2024/02/28 01:20:04;;;;;;;29.07;15.83;;;9.20;7.00;;;;;;4362710;28;658498;-73
2024/02/28 01:22:51;;;;;;;21.17;13.33;;;9.10;1.00;;;;;;4393915;28;656471;-73
2024/02/28 01:25:38;;;;;;;27.47;15.03;;;9.10;1.00;;;;;;4373368;28;656429;-73
2024/02/28 01:28:25;;;;;;;25.83;15.85;;;9.00;1.00;;;;;;4410795;28;657609;-72
2024/02/28 01:31:14;;;;;;;33.53;18.23;;;9.10;1.00;;;;;;4387722;28;657130;-73
2024/02/28 01:34:01;;;;;;;33.10;18.80;;;9.10;1.00;;;;;;4407302;28;657227;-73
2024/02/28 01:36:48;;;;;;;41.60;20.27;;;9.00;1.00;;;;;;4385387;28;656577;-73
2024/02/28 01:39:36;;;;;;;29.33;16.60;;;9.00;1.00;;;;;;4396364;28;656691;-73
2024/02/28 01:42:23;;;;;;;30.93;17.13;;;9.10;1.00;;;;;;4389808;28;657025;-73
2024/02/28 01:45:13;;;;;;;34.83;19.20;;;9.00;1.00;;;;;;4406988;28;657598;-73
2024/02/28 01:48:02;;;;;;;34.07;20.13;;;9.00;1.00;;;;;;4385291;28;657888;-73
2024/02/28 01:50:49;;;;;;;38.33;21.30;;;8.90;1.00;;;;;;4390338;28;658155;-73
2024/02/28 01:53:36;;;;;;;40.93;19.43;;;8.90;1.00;;;;;;4413562;28;656943;-73
2024/02/28 01:56:25;;;;;;;29.20;18.07;;;9.00;28.40;;;;;;4383480;28;657046;-73
2024/02/28 01:59:12;;;;;;;33.57;18.77;;;8.90;33.70;;;;;;4408015;28;657371;-73
2024/02/28 02:02:00;;;;;;;38.13;21.83;;;8.90;10.80;;;;;;4422777;28;658906;-73
2024/02/28 02:04:49;;;;;;;39.13;21.47;;;8.80;13.20;;;;;;4417398;28;658342;-73
2024/02/28 02:07:36;;;;;;;38.53;22.23;;;8.70;20.00;;;;;;4415472;28;657120;-73
2024/02/28 02:10:24;;;;;;;61.73;31.47;;;8.70;31.70;;;;;;4413847;28;657221;-73
2024/02/28 02:13:11;;;;;;;50.53;29.50;;;8.80;65.30;;;;;;4423125;28;657897;-73
2024/02/28 02:15:58;;;;;;;47.63;27.30;;;8.90;93.30;;;;;;4395482;28;658100;-73
2024/02/28 02:18:47;;;;;;;43.97;25.55;;;8.90;95.90;;;;;;4420861;28;658377;-74
2024/02/28 02:21:36;;;;;;;45.87;24.77;;;8.80;97.70;;;;;;4392802;28;657989;-73
2024/02/28 02:24:24;;;;;;;45.23;24.50;;;8.90;99.90;;;;;;4389855;28;658020;-73
2024/02/28 02:27:12;;;;;;;49.15;26.30;;;9.00;99.90;;;;;;4391704;28;658384;-73
2024/02/28 02:29:59;;;;;;;46.20;25.40;;;9.00;99.90;;;;;;4395432;28;657998;-73
2024/02/28 02:32:46;;;;;;;54.17;27.20;;;9.10;99.90;;;;;;4430821;28;657438;-72
2024/02/28 02:35:34;;;;;;;55.60;26.20;;;9.10;99.60;;;;;;4412900;28;657786;-73
2024/02/28 02:38:21;;;;;;;52.27;26.83;;;9.10;93.60;;;;;;4390948;28;658224;-73
2024/02/28 02:41:10;;;;;;;53.13;27.30;;;9.00;79.90;;;;;;4390559;28;657529;-73
2024/02/28 02:43:58;;;;;;;54.67;25.63;;;9.00;85.80;;;;;;4426512;28;657714;-73
2024/02/28 02:46:45;;;;;;;53.30;26.07;;;9.20;75.60;;;;;;4436314;28;658918;-73
2024/02/28 02:49:32;;;;;;;49.60;25.37;;;9.20;31.50;;;;;;4408986;28;657681;-73
2024/02/28 02:52:20;;;;;;;44.90;23.63;;;9.10;7.10;;;;;;4408031;28;659194;-73
2024/02/28 02:55:08;;;;;;;52.17;24.17;;;9.00;1.00;;;;;;4401224;28;656442;-73
2024/02/28 02:57:57;;;;;;;49.17;26.00;;;9.00;1.00;;;;;;4401734;28;657057;-73
2024/02/28 03:00:44;;;;;;;51.23;24.67;;;8.90;2.50;;;;;;4379768;28;657138;-73
2024/02/28 03:03:31;;;;;;;47.50;25.27;;;8.90;16.20;;;;;;4406931;28;656452;-73
2024/02/28 03:06:19;;;;;;;50.00;25.17;;;8.90;31.60;;;;;;4376072;28;657238;-73
2024/02/28 03:09:07;;;;;;;41.00;23.63;;;8.90;53.10;;;;;;4402606;28;657910;-73
2024/02/28 03:11:54;;;;;;;45.57;24.77;;;8.90;64.00;;;;;;4377192;28;659148;-73
2024/02/28 03:14:43;;;;;;;51.60;25.42;;;8.90;69.70;;;;;;4404284;28;657468;-73
2024/02/28 03:17:30;;;;;;;40.17;22.47;;;8.80;72.80;;;;;;4363286;28;658114;-73
2024/02/28 03:20:17;;;;;;;46.67;22.93;;;8.80;80.00;;;;;;4381404;28;657560;-73
2024/02/28 03:23:05;;;;;;;43.73;23.30;;;8.80;95.10;;;;;;4388423;28;658905;-73
2024/02/28 03:25:52;;;;;;;45.47;23.37;;;8.90;92.10;;;;;;4388217;28;657915;-73
2024/02/28 03:28:40;;;;;;;43.47;23.43;;;8.90;99.90;;;;;;4396572;28;658397;-73
2024/02/28 03:31:28;;;;;;;40.60;22.27;;;8.90;71.70;;;;;;4412456;28;657524;-73
2024/02/28 03:34:15;;;;;;;44.92;21.95;;;8.90;40.60;;;;;;4377227;28;658475;-73
2024/02/28 03:37:03;;;;;;;45.33;20.53;;;8.90;13.30;;;;;;4385955;28;658382;-73
2024/02/28 03:39:50;;;;;;;39.17;20.23;;;8.80;1.00;;;;;;4384509;28;658526;-73
2024/02/28 03:42:38;;;;;;;35.33;21.10;;;8.90;1.00;;;;;;4385148;28;657230;-73
2024/02/28 03:45:25;;;;;;;40.40;21.87;;;8.80;1.00;;;;;;4404400;28;657947;-73
2024/02/28 03:48:14;;;;;;;41.23;21.73;;;8.80;1.00;;;;;;4384672;28;657432;-73
2024/02/28 03:51:03;;;;;;;40.13;21.67;;;8.80;1.00;;;;;;4386465;28;656928;-73
2024/02/28 03:53:50;;;;;;;43.73;22.23;;;8.70;1.00;;;;;;4400531;28;657818;-72
2024/02/28 03:56:38;;;;;;;40.63;23.57;;;8.80;1.00;;;;;;4402883;28;656192;-72
2024/02/28 03:59:25;;;;;;;47.40;23.50;;;8.80;1.00;;;;;;4390508;28;657430;-72
2024/02/28 04:02:12;;;;;;;42.00;22.20;;;8.80;1.00;;;;;;4392525;28;656420;-73
2024/02/28 04:05:01;;;;;;;37.27;19.57;;;8.90;1.00;;;;;;4413887;28;656487;-72
2024/02/28 04:07:48;;;;;;;35.53;19.43;;;8.90;1.00;;;;;;4386275;28;656661;-72
2024/02/28 04:10:35;;;;;;;41.45;21.83;;;8.80;1.00;;;;;;4394193;28;657205;-73
2024/02/28 04:13:23;;;;;;;36.87;20.07;;;8.80;1.00;;;;;;4381726;28;656941;-73
2024/02/28 04:16:11;;;;;;;41.27;22.00;;;8.70;1.00;;;;;;4405308;28;657424;-73
2024/02/28 04:18:58;;;;;;;46.27;22.47;;;8.70;1.00;;;;;;4379597;28;656959;-73
2024/02/28 04:21:46;;;;;;;48.60;24.00;;;8.70;1.00;;;;;;4400852;28;657136;-73
2024/02/28 04:24:34;;;;;;;54.30;24.60;;;8.80;1.00;;;;;;4383391;28;656702;-73
2024/02/28 04:27:21;;;;;;;53.67;25.00;;;8.90;3.80;;;;;;4404624;28;657441;-73
2024/02/28 04:30:09;;;;;;;48.13;25.07;;;9.00;32.90;;;;;;4375760;28;656746;-73
2024/02/28 04:32:56;;;;;;;52.07;25.13;;;9.00;14.50;;;;;;4394308;28;658169;-73
2024/02/28 04:35:43;;;;;;;50.40;24.73;;;9.10;10.50;;;;;;4386714;28;658235;-73
2024/02/28 04:38:32;;;;;;;43.50;24.20;;;9.00;1.00;;;;;;4412298;28;658353;-73
2024/02/28 04:41:19;;;;;;;46.73;23.90;;;9.00;1.00;;;;;;4384839;28;657244;-72
2024/02/28 04:44:06;;;;;;;47.10;23.63;;;9.00;2.80;;;;;;4402559;28;657395;-73
2024/02/28 04:46:53;;;;;;;42.83;23.43;;;9.10;1.00;;;;;;4389070;28;657357;-73
2024/02/28 04:49:40;;;;;;;43.80;23.20;;;9.20;1.00;;;;;;4386904;28;657952;-73
2024/02/28 04:52:28;;;;;;;37.63;20.73;;;9.20;1.00;;;;;;4405927;28;656765;-73
2024/02/28 04:55:17;;;;;;;35.50;20.43;;;9.20;1.00;;;;;;4422839;28;657880;-73
2024/02/28 04:58:04;;;;;;;42.47;21.30;;;9.20;1.00;;;;;;4397777;28;656776;-73
2024/02/28 05:00:52;;;;;;;35.07;20.07;;;9.20;1.00;;;;;;4419705;28;656996;-73
2024/02/28 05:03:39;;;;;;;41.00;19.73;;;9.20;1.00;;;;;;4399013;28;657469;-73
2024/02/28 05:06:26;;;;;;;41.67;21.37;;;9.30;1.00;;;;;;4418832;28;656471;-73
2024/02/28 05:09:13;;;;;;;39.65;19.98;;;9.50;1.00;;;;;;4404046;28;657082;-73
2024/02/28 05:12:02;;;;;;;37.67;20.50;;;9.40;99.90;;;;;;4420049;28;657453;-73
2024/02/28 05:14:50;;;;;;;36.70;19.20;;;9.50;99.90;;;;;;4397837;28;658584;-73
2024/02/28 05:17:37;;;;;;;37.23;20.30;;;9.50;99.90;;;;;;4412914;28;657895;-73
2024/02/28 05:20:24;;;;;;;43.80;21.83;;;9.50;99.90;;;;;;4405246;28;658461;-73
2024/02/28 05:23:11;;;;;;;39.23;20.83;;;9.50;99.90;;;;;;4411102;28;658161;-73
2024/02/28 05:26:03;;;;;;;44.47;21.60;;;9.40;23.80;;;;;;4398793;28;657434;-73
2024/02/28 05:28:52;;;;;;;45.47;22.87;;;9.40;76.60;;;;;;4399003;28;658275;-73
2024/02/28 05:31:39;;;;;;;46.80;21.80;;;9.30;99.90;;;;;;4403060;28;658018;-73
2024/02/28 05:34:26;;;;;;;43.87;22.37;;;9.30;99.90;;;;;;4419458;28;657270;-73
2024/02/28 05:37:13;;;;;;;44.50;22.37;;;9.30;99.90;;;;;;4406249;28;658088;-73
2024/02/28 05:40:00;;;;;;;46.30;22.60;;;9.30;99.90;;;;;;4419779;28;658056;-73
2024/02/28 05:42:48;;;;;;;43.10;23.80;;;9.40;99.90;;;;;;4407527;28;658149;-73
2024/02/28 05:45:36;;;;;;;40.77;22.87;;;9.40;99.90;;;;;;4417267;28;658833;-73
2024/02/28 05:48:24;;;;;;;45.60;25.00;;;9.40;99.90;;;;;;4402795;28;658141;-72
2024/02/28 05:51:11;;;;;;;43.10;23.00;;;9.40;5.50;;;;;;4416269;28;658085;-73
2024/02/28 05:53:59;;;;;;;41.83;22.17;;;9.40;1.00;;;;;;4393092;28;656814;-73
2024/02/28 05:56:46;;;;;;;39.47;21.00;;;9.40;1.00;;;;;;4403669;28;656643;-73
2024/02/28 05:59:33;;;;;;;36.07;20.20;;;9.50;1.00;;;;;;4392123;28;657162;-73
2024/02/28 06:02:22;;;;;;;41.70;21.23;;;9.50;1.00;;;;;;4390494;28;656677;-73
2024/02/28 06:05:09;;;;;;;37.93;21.80;;;9.50;99.90;;;;;;4378315;28;658047;-73
2024/02/28 06:07:57;;;;;;;41.73;22.77;;;9.40;99.90;;;;;;4391840;28;658041;-73
2024/02/28 06:10:46;;;;;;;41.37;21.93;;;9.40;99.90;;;;;;4383227;28;657527;-73
2024/02/28 06:13:33;;;;;;;48.40;25.03;;;9.40;99.90;;;;;;4378596;28;657756;-73
2024/02/28 06:16:21;;;;;;;48.83;23.27;;;9.40;99.90;;;;;;4393463;28;657767;-73
2024/02/28 06:19:09;;;;;;;55.27;25.83;;;9.40;99.90;;;;;;4367005;28;658243;-73
2024/02/28 06:21:57;;;;;;;52.87;26.17;;;9.50;99.90;;;;;;4391093;28;657882;-73
2024/02/28 06:24:44;;;;;;;45.97;27.03;;;9.60;99.90;;;;;;4360398;28;658204;-73
2024/02/28 06:27:31;;;;;;;58.43;32.07;;;9.70;99.90;;;;;;4377507;28;657960;-72
2024/02/28 06:30:18;;;;;;;55.70;30.53;;;9.80;99.90;;;;;;4365595;28;657588;-73
2024/02/28 06:33:06;;;;;;;50.40;29.70;;;9.90;99.90;;;;;;4402054;28;658432;-72
2024/02/28 06:35:54;;;;;;;45.50;25.50;;;10.00;97.10;;;;;;4362386;28;657921;-72
2024/02/28 06:38:42;;;;;;;44.37;24.67;;;10.10;23.90;;;;;;4371708;28;658780;-72
2024/02/28 06:41:29;;;;;;;46.57;23.93;;;10.20;1.00;;;;;;4368274;28;660450;-72
2024/02/28 06:44:16;;;;;;;47.07;24.73;;;10.30;1.00;;;;;;4376712;28;657481;-72
2024/02/28 06:47:04;;;;;;;48.20;27.07;;;10.40;1.00;;;;;;4368192;28;657607;-72
2024/02/28 06:49:52;;;;;;;43.93;24.80;;;10.40;1.00;;;;;;4404179;28;657813;-75
2024/02/28 06:52:40;;;;;;;40.77;22.33;;;10.40;1.00;;;;;;4386735;28;657874;-75
2024/02/28 06:55:28;;;;;;;47.50;24.07;;;10.30;1.00;;;;;;4407710;28;657757;-75
2024/02/28 06:58:15;;;;;;;45.77;23.03;;;10.30;99.90;;;;;;4406822;28;658661;-76
2024/02/28 07:01:03;;;;;;;45.90;22.17;;;10.30;1.00;;;;;;4401658;28;658902;-76
2024/02/28 07:03:50;;;;;;;44.50;22.13;;;10.40;1.00;;;;;;4423931;28;658226;-76
2024/02/28 07:06:37;;;;;;;40.97;21.73;;;10.50;1.00;;;;;;4419362;28;657891;-76
2024/02/28 07:09:29;;;;;;;36.47;19.33;;;10.60;1.00;;;;;;4419795;28;657602;-76
2024/02/28 07:12:17;;;;;;;41.10;19.73;;;10.70;99.90;;;;;;4386384;28;657681;-76
2024/02/28 07:15:05;;;;;;;36.57;18.30;;;10.80;1.00;;;;;;4381951;28;659077;-76
2024/02/28 07:17:52;;;;;;;41.23;19.00;;;10.90;1.00;;;;;;4401224;28;656951;-75
2024/02/28 07:20:39;;;;;;;35.70;17.70;;;11.00;99.90;;;;;;4384605;28;658782;-76
2024/02/28 07:23:26;;;;;;;36.20;18.47;;;11.10;99.90;;;;;;4405071;28;658597;-76
2024/02/28 07:26:16;;;;;;;33.60;18.50;;;11.30;99.90;;;;;;4387239;28;658609;-76
2024/02/28 07:29:04;;;;;;;40.23;20.00;;;11.40;1.00;;;;;;4384985;28;659048;-76
2024/02/28 07:31:51;;;;;;;39.63;19.83;;;11.60;1.00;;;;;;4400427;28;658163;-76
2024/02/28 07:34:38;;;;;;;40.40;19.60;;;11.70;99.90;;;;;;4411182;28;658419;-75
2024/02/28 07:37:25;;;;;;;41.00;20.33;;;11.60;99.90;;;;;;4426489;28;658385;-76
2024/02/28 07:40:13;;;;;;;39.03;20.25;;;11.70;99.90;;;;;;4405595;28;658944;-75
2024/02/28 07:43:01;;;;;;;37.40;18.83;;;11.70;1.00;;;;;;4427460;28;659143;-76
2024/02/28 07:45:48;;;;;;;34.27;17.40;;;11.70;1.00;;;;;;4408192;28;657579;-76
2024/02/28 07:48:35;;;;;;;32.30;17.53;;;11.80;99.90;;;;;;4424513;28;658577;-76
2024/02/28 07:51:23;;;;;;;33.10;17.20;;;11.70;1.00;;;;;;4387820;28;658884;-76
2024/02/28 07:54:10;;;;;;;41.07;18.60;;;11.70;99.90;;;;;;4409718;28;658526;-76
2024/02/28 07:56:57;;;;;;;35.07;19.67;;;11.70;99.90;;;;;;4396269;28;659263;-77
2024/02/28 07:59:46;;;;;;;31.00;18.67;;;11.70;47.90;;;;;;4399114;28;659533;-77
2024/02/28 08:02:34;;;;;;;32.20;18.00;;;11.70;2.50;;;;;;4386000;28;659209;-76
2024/02/28 08:05:21;;;;;;;36.77;18.10;;;11.70;1.00;;;;;;4410825;28;656906;-76
2024/02/28 08:08:09;;;;;;;35.90;18.50;;;11.70;1.00;;;;;;4380744;28;657617;-76
2024/02/28 08:10:56;;;;;;;35.30;18.40;;;11.70;99.90;;;;;;4401520;28;657852;-76
2024/02/28 08:13:43;;;;;;;41.30;19.50;;;11.80;1.00;;;;;;4386115;28;658448;-76
2024/02/28 08:16:32;;;;;;;38.07;19.70;;;11.80;99.90;;;;;;4387632;28;657966;-77
2024/02/28 08:19:19;;;;;;;41.33;20.47;;;11.80;99.90;;;;;;4385395;28;659556;-77
2024/02/28 08:22:06;;;;;;;38.47;20.17;;;11.80;1.00;;;;;;4409433;28;659148;-77
2024/02/28 08:24:54;;;;;;;40.50;21.23;;;11.80;1.00;;;;;;4400461;28;657765;-77
2024/02/28 08:27:41;;;;;;;40.53;20.73;;;11.90;1.00;;;;;;4417245;28;657347;-77
2024/02/28 08:30:28;;;;;;;37.27;21.10;;;11.90;99.90;;;;;;4393425;28;658113;-77
2024/02/28 08:33:17;;;;;;;51.57;24.63;;;12.00;1.00;;;;;;4414383;28;658943;-77
2024/02/28 08:36:05;;;;;;;39.87;23.37;;;12.10;99.90;;;;;;4393853;28;657657;-77
2024/02/28 08:38:52;;;;;;;42.60;22.23;;;12.20;99.90;;;;;;4416908;28;658842;-77
2024/02/28 08:41:39;;;;;;;38.20;20.47;;;12.30;99.90;;;;;;4388809;28;659490;-77
2024/02/28 08:44:26;;;;;;;39.17;19.77;;;12.40;99.90;;;;;;4406055;28;659534;-76
2024/02/28 08:47:14;;;;;;;37.83;20.03;;;12.50;99.90;;;;;;4376097;28;658859;-76
2024/02/28 08:50:03;;;;;;;36.70;19.07;;;12.60;1.00;;;;;;4393844;28;659499;-76
2024/02/28 08:52:50;;;;;;;34.13;19.50;;;12.70;1.00;;;;;;4371925;28;658094;-77
2024/02/28 08:55:38;;;;;;;39.33;18.77;;;12.80;1.00;;;;;;4390083;28;657686;-76
2024/02/28 08:58:25;;;;;;;39.87;19.67;;;12.80;1.00;;;;;;4408185;28;658167;-76
2024/02/28 09:01:16;;;;;;;41.40;19.77;;;12.90;1.00;;;;;;4383099;28;658382;-76
2024/02/28 09:04:03;;;;;;;47.43;20.60;;;13.00;1.00;;;;;;4369057;28;658223;-75
2024/02/28 09:06:53;;;;;;;38.97;20.80;;;12.90;99.90;;;;;;4404317;28;658387;-76
2024/02/28 09:09:43;;;;;;;43.83;20.13;;;13.00;1.00;;;;;;4393270;28;659587;-76
2024/02/28 09:12:30;;;;;;;40.67;21.47;;;13.00;1.00;;;;;;4387424;28;658429;-76
2024/02/28 09:15:17;;;;;;;51.23;23.07;;;12.90;99.90;;;;;;4391617;28;658565;-76
2024/02/28 09:18:05;;;;;;;50.03;26.63;;;13.10;62.10;;;;;;4415446;28;659496;-78
2024/02/28 09:20:52;;;;;;;45.57;23.40;;;13.10;1.00;;;;;;4397742;28;659485;-73
2024/02/28 09:23:41;;;;;;;39.87;21.63;;;13.10;1.00;;;;;;4408415;28;657804;-74
2024/02/28 09:26:28;;;;;;;42.40;21.77;;;13.20;1.00;;;;;;4386464;28;657536;-76
2024/02/28 09:29:15;;;;;;;46.43;21.27;;;13.20;1.00;;;;;;4403172;28;658526;-76
2024/02/28 09:32:03;;;;;;;39.77;20.67;;;13.20;1.00;;;;;;4390788;28;657556;-76
2024/02/28 09:34:50;;;;;;;38.80;18.83;;;13.20;1.00;;;;;;4411881;28;658460;-76
2024/02/28 09:37:38;;;;;;;36.33;16.90;;;13.20;1.00;;;;;;4408335;28;658360;-75
2024/02/28 09:40:27;;;;;;;34.93;18.60;;;13.20;1.00;;;;;;4398316;28;659248;-77
2024/02/28 09:43:19;;;;;;;45.43;20.30;;;13.00;34.10;;;;;;4374198;28;658066;-76
2024/02/28 09:46:07;;;;;;;44.53;21.00;;;12.90;1.00;;;;;;4375698;28;658794;-76
2024/02/28 09:48:54;;;;;;;44.10;22.40;;;12.80;99.90;;;;;;4390579;28;657644;-76
2024/02/28 09:51:41;;;;;;;39.10;20.43;;;12.70;99.90;;;;;;4422978;28;658399;-76
2024/02/28 09:54:29;;;;;;;44.87;22.07;;;12.70;1.00;;;;;;4399082;28;658618;-76
2024/02/28 09:57:18;;;;;;;46.60;22.27;;;12.70;94.60;;;;;;4410501;28;658136;-77
2024/02/28 10:00:09;;;;;;;37.73;19.27;;;12.60;99.90;;;;;;4389312;28;658690;-76
2024/02/28 10:02:57;;;;;;;41.87;20.53;;;12.60;1.00;;;;;;4389711;28;658669;-76
2024/02/28 10:05:44;;;;;;;44.97;19.00;;;12.60;19.20;;;;;;4400443;28;657883;-76
2024/02/28 10:08:32;;;;;;;31.40;18.13;;;12.70;99.90;;;;;;4423051;28;658566;-76
2024/02/28 10:11:20;;;;;;;34.50;18.47;;;12.70;1.00;;;;;;4384992;28;658829;-76
2024/02/28 10:14:09;;;;;;;36.97;18.10;;;12.70;99.90;;;;;;4388561;28;657927;-76
2024/02/28 10:16:56;;;;;;;36.23;17.90;;;12.80;99.90;;;;;;4417758;28;658945;-76
2024/02/28 10:19:44;;;;;;;38.10;17.57;;;12.90;99.90;;;;;;4404679;28;658485;-76
2024/02/28 10:22:35;;;;;;;42.07;18.07;;;12.90;1.00;;;;;;4412006;28;658533;-76
2024/02/28 10:25:23;;;;;;;40.67;19.97;;;12.90;1.00;;;;;;4366541;28;658095;-75
2024/02/28 10:28:11;;;;;;;40.07;19.93;;;12.80;1.00;;;;;;4397113;28;657721;-76
2024/02/28 10:30:59;;;;;;;41.37;19.23;;;12.60;99.90;;;;;;4398166;28;657672;-76
2024/02/28 10:33:49;;;;;;;32.17;16.60;;;12.60;1.00;;;;;;4412516;28;658433;-75
2024/02/28 10:36:41;;;;;;;32.10;15.40;;;12.60;99.90;;;;;;4400477;28;657984;-76
2024/02/28 10:39:29;;;;;;;32.67;15.17;;;12.60;99.90;;;;;;4397703;28;659359;-76
2024/02/28 10:42:16;;;;;;;32.57;14.70;;;12.60;1.00;;;;;;4414771;28;659301;-76
2024/02/28 10:45:03;;;;;;;29.97;14.30;;;12.60;97.50;;;;;;4403306;28;657919;-76
2024/02/28 10:47:52;;;;;;;29.88;15.23;;;12.60;1.00;;;;;;4429290;28;659131;-76
2024/02/28 10:50:40;;;;;;;31.27;15.63;;;12.70;99.90;;;;;;4405393;28;658480;-76
2024/02/28 10:53:32;;;;;;;32.50;15.00;;;12.80;1.00;;;;;;4421787;28;659540;-76
2024/02/28 10:56:19;;;;;;;26.73;15.57;;;12.90;1.00;;;;;;4402013;28;658702;-76
2024/02/28 10:59:07;;;;;;;31.43;14.73;;;12.90;99.90;;;;;;4419994;28;658150;-76
2024/02/28 11:01:55;;;;;;;32.93;15.00;;;13.00;87.80;;;;;;4371016;28;659608;-77
2024/02/28 11:04:44;;;;;;;24.70;13.30;;;13.20;99.90;;;;;;4387100;28;658257;-77
2024/02/28 11:07:32;;;;;;;38.13;13.97;;;13.20;99.90;;;;;;4395451;28;659515;-76
2024/02/28 11:10:19;;;;;;;29.13;13.20;;;13.30;99.90;;;;;;4390999;28;658568;-76
2024/02/28 11:13:06;;;;;;;26.87;12.57;;;13.40;99.90;;;;;;4394674;28;659002;-76
2024/02/28 11:15:55;;;;;;;20.43;11.73;;;13.40;99.90;;;;;;4369323;28;658644;-77
2024/02/28 11:18:49;;;;;;;23.30;11.80;;;13.40;99.90;;;;;;4411269;28;658300;-76
2024/02/28 11:21:39;;;;;;;24.87;12.30;;;13.40;76.10;;;;;;4368931;28;659138;-76
2024/02/28 11:24:30;;;;;;;24.43;11.90;;;13.40;1.00;;;;;;4379096;28;658760;-76
2024/02/28 11:27:17;;;;;;;24.60;11.57;;;13.30;1.00;;;;;;4361712;28;657990;-75
2024/02/28 11:30:06;;;;;;;26.07;11.97;;;13.30;1.00;;;;;;4405487;28;658345;-75
2024/02/28 11:32:54;;;;;;;26.73;11.87;;;13.30;25.60;;;;;;4381454;28;657596;-76
2024/02/28 11:35:41;;;;;;;24.10;11.63;;;13.20;99.90;;;;;;4398876;28;658690;-76
2024/02/28 11:38:30;;;;;;;27.20;12.17;;;13.30;1.00;;;;;;4377428;28;658371;-77
2024/02/28 11:41:27;;;;;;;25.70;11.67;;;13.30;1.00;;;;;;4392880;28;658131;-76
2024/02/28 11:44:14;;;;;;;27.47;12.23;;;13.20;1.00;;;;;;4368054;28;657907;-76
2024/02/28 11:47:02;;;;;;;25.73;12.70;;;13.10;1.00;;;;;;4400739;28;657584;-76
2024/02/28 11:49:50;;;;;;;25.17;12.40;;;13.10;16.90;;;;;;4370846;28;658981;-76
2024/02/28 11:52:37;;;;;;;29.27;13.73;;;13.10;99.90;;;;;;4408026;28;658248;-76
2024/02/28 11:55:27;;;;;;;27.73;13.33;;;13.10;1.00;;;;;;4371102;28;659374;-76
2024/02/28 11:58:14;;;;;;;26.00;13.53;;;13.10;99.90;;;;;;4369925;28;658748;-77
2024/02/28 12:01:02;;;;;;;27.13;14.27;;;13.20;99.90;;;;;;4406130;28;658383;-76
2024/02/28 12:03:49;;;;;;;28.73;14.73;;;13.10;10.00;;;;;;4389415;28;659000;-76
2024/02/28 12:06:37;;;;;;;30.30;14.60;;;13.30;99.90;;;;;;4393561;28;658845;-76
2024/02/28 12:09:24;;;;;;;26.37;14.30;;;13.30;99.90;;;;;;4363920;28;659381;-76
2024/02/28 12:12:13;;;;;;;33.30;13.70;;;13.40;99.90;;;;;;4401609;28;658927;-76
2024/02/28 12:15:00;;;;;;;26.40;14.07;;;13.40;1.00;;;;;;4386631;28;659596;-77
2024/02/28 12:17:48;;;;;;;24.47;12.60;;;13.50;77.30;;;;;;4373003;28;657665;-76
2024/02/28 12:20:36;;;;;;;22.13;11.93;;;13.50;99.90;;;;;;4382788;28;659688;-76
2024/02/28 12:23:24;;;;;;;23.20;11.10;;;13.50;64.20;;;;;;4372750;28;659107;-76
2024/02/28 12:26:11;;;;;;;29.23;11.80;;;13.40;1.00;;;;;;4408868;28;658686;-77
2024/02/28 12:29:01;;;;;;;18.97;11.37;;;13.50;99.90;;;;;;4387111;28;658030;-76
2024/02/28 12:31:48;;;;;;;26.10;11.70;;;13.50;1.00;;;;;;4389961;28;658853;-76
2024/02/28 12:34:35;;;;;;;28.02;11.98;;;13.60;99.90;;;;;;4400842;28;657800;-76
2024/02/28 12:37:22;;;;;;;29.17;12.77;;;13.50;1.00;;;;;;4385093;28;658539;-76
2024/02/28 12:40:10;;;;;;;27.83;13.17;;;13.30;1.00;;;;;;4409688;28;659083;-76
2024/02/28 12:42:58;;;;;;;26.10;12.90;;;13.50;99.90;;;;;;4389851;28;658231;-76
2024/02/28 12:45:47;;;;;;;28.00;12.77;;;13.40;1.00;;;;;;4409716;28;658491;-77
2024/02/28 12:48:38;;;;;;;25.37;12.57;;;13.40;99.90;;;;;;4386214;28;658181;-75
2024/02/28 12:51:37;;;;;;;25.63;11.43;;;13.50;1.00;;;;;;4392385;28;659852;-76
2024/02/28 12:54:24;;;;;;;30.27;11.43;;;13.50;1.00;;;;;;4364452;28;658201;-77
2024/02/28 12:57:13;;;;;;;24.73;10.67;;;13.50;99.90;;;;;;4409971;28;657035;-76
2024/02/28 13:00:01;;;;;;;22.87;11.23;;;13.50;99.90;;;;;;4382134;28;659636;-75
2024/02/28 13:02:49;;;;;;;25.67;11.70;;;13.50;99.90;;;;;;4383902;28;658867;-76
2024/02/28 13:05:37;;;;;;;21.97;11.10;;;13.40;1.00;;;;;;4414113;28;658211;-76
2024/02/28 13:08:24;;;;;;;25.40;12.23;;;13.30;1.00;;;;;;4381894;28;658422;-76
2024/02/28 13:11:11;;;;;;;24.50;12.40;;;13.30;99.90;;;;;;4407535;28;657967;-77
2024/02/28 13:13:58;;;;;;;26.37;12.57;;;13.30;62.20;;;;;;4375605;28;658762;-77
2024/02/28 13:16:46;;;;;;;32.43;12.87;;;13.50;17.00;;;;;;4406432;28;659328;-76
2024/02/28 13:19:35;;;;;;;26.77;13.73;;;13.40;1.00;;;;;;4387292;28;658931;-76
2024/02/28 13:22:22;;;;;;;32.63;14.33;;;13.30;1.00;;;;;;4389832;28;657776;-76
2024/02/28 13:25:10;;;;;;;31.07;14.00;;;13.40;1.00;;;;;;4415328;28;657792;-76
2024/02/28 13:27:57;;;;;;;29.97;14.80;;;13.30;95.00;;;;;;4392851;28;657668;-75
2024/02/28 13:30:45;;;;;;;30.83;15.43;;;13.30;99.90;;;;;;4414527;28;658438;-76
2024/02/28 13:33:32;;;;;;;39.83;17.73;;;13.20;99.90;;;;;;4388382;28;659042;-76
2024/02/28 13:36:21;;;;;;;37.53;18.07;;;13.10;99.90;;;;;;4408798;28;658975;-76
2024/02/28 13:39:08;;;;;;;38.67;18.80;;;13.00;1.00;;;;;;4379046;28;658599;-76
2024/02/28 13:41:56;;;;;;;41.83;20.97;;;13.10;99.90;;;;;;4412628;28;658862;-76
2024/02/28 13:44:43;;;;;;;47.30;24.73;;;13.10;93.90;;;;;;4389082;28;658294;-76
2024/02/28 13:47:30;;;;;;;57.03;28.30;;;12.90;99.90;;;;;;4407116;28;659478;-76
2024/02/28 13:50:17;;;;;;;60.73;31.37;;;12.80;99.90;;;;;;4384685;28;659473;-76
2024/02/28 13:53:06;;;;;;;69.33;31.63;;;12.70;99.90;;;;;;4408834;28;659263;-76
2024/02/28 13:55:53;;;;;;;68.07;31.57;;;12.80;99.90;;;;;;4379069;28;658918;-76
2024/02/28 13:58:41;;;;;;;81.50;35.50;;;12.90;1.00;;;;;;4397050;28;659601;-76
2024/02/28 14:01:28;;;;;;;80.97;38.70;;;12.90;1.00;;;;;;4398606;28;658302;-76
2024/02/28 14:04:16;;;;;;;77.27;35.47;;;12.80;1.00;;;;;;4406820;28;658437;-78
2024/02/28 14:07:04;;;;;;;78.63;38.33;;;12.80;1.00;;;;;;4372327;28;657693;-73
2024/02/28 14:09:52;;;;;;;75.67;34.50;;;12.60;1.00;;;;;;4406799;28;658499;-76